sensor_id;sensor_type;location;lat;lon;timestamp;P1;durP1;ratioP1;P2;durP2;ratioP2
21546;SDS011;41275;51.912;4.388;2022-07-23T00:03:00;4.83;;;1.93;;
21546;SDS011;41275;51.912;4.388;2022-07-23T00:08:21;5.00;;;2.00;;
21546;SDS011;41275;51.912;4.388;2022-07-23T00:13:42;4.03;;;1.87;;
21546;SDS011;41275;51.912;4.388;2022-07-23T00:19:04;4.00;;;1.65;;
21546;SDS011;41275;51.912;4.388;2022-07-23T00:24:25;7.50;;;3.78;;
21546;SDS011;41275;51.912;4.388;2022-07-23T00:29:46;5.30;;;2.75;;
21546;SDS011;41275;51.912;4.388;2022-07-23T00:35:07;4.95;;;2.30;;
21546;SDS011;41275;51.912;4.388;2022-07-23T00:40:29;4.07;;;1.77;;
21546;SDS011;41275;51.912;4.388;2022-07-23T00:45:51;3.80;;;1.50;;
21546;SDS011;41275;51.912;4.388;2022-07-23T00:51:12;2.78;;;1.65;;
21546;SDS011;41275;51.912;4.388;2022-07-23T00:56:34;4.50;;;1.63;;
21546;SDS011;41275;51.912;4.388;2022-07-23T01:01:55;4.53;;;1.70;;
21546;SDS011;41275;51.912;4.388;2022-07-23T01:07:17;4.30;;;2.10;;
21546;SDS011;41275;51.912;4.388;2022-07-23T01:12:39;6.87;;;4.50;;
21546;SDS011;41275;51.912;4.388;2022-07-23T01:18:00;14.88;;;9.20;;
21546;SDS011;41275;51.912;4.388;2022-07-23T01:23:23;13.40;;;7.87;;
21546;SDS011;41275;51.912;4.388;2022-07-23T01:28:44;13.10;;;8.88;;
21546;SDS011;41275;51.912;4.388;2022-07-23T01:34:06;17.27;;;14.33;;
21546;SDS011;41275;51.912;4.388;2022-07-23T01:39:27;12.17;;;9.00;;
21546;SDS011;41275;51.912;4.388;2022-07-23T01:44:49;11.05;;;8.30;;
21546;SDS011;41275;51.912;4.388;2022-07-23T01:50:10;5.80;;;4.57;;
21546;SDS011;41275;51.912;4.388;2022-07-23T01:55:31;7.20;;;4.05;;
21546;SDS011;41275;51.912;4.388;2022-07-23T02:00:53;5.32;;;3.00;;
21546;SDS011;41275;51.912;4.388;2022-07-23T02:06:14;7.33;;;6.17;;
21546;SDS011;41275;51.912;4.388;2022-07-23T02:11:35;11.70;;;8.15;;
21546;SDS011;41275;51.912;4.388;2022-07-23T02:16:57;15.90;;;12.80;;
21546;SDS011;41275;51.912;4.388;2022-07-23T02:22:18;12.40;;;9.52;;
21546;SDS011;41275;51.912;4.388;2022-07-23T02:27:39;8.10;;;4.60;;
21546;SDS011;41275;51.912;4.388;2022-07-23T02:33:00;4.97;;;2.50;;
21546;SDS011;41275;51.912;4.388;2022-07-23T02:38:22;5.10;;;2.57;;
21546;SDS011;41275;51.912;4.388;2022-07-23T02:43:43;4.38;;;2.55;;
21546;SDS011;41275;51.912;4.388;2022-07-23T02:49:04;3.97;;;1.90;;
21546;SDS011;41275;51.912;4.388;2022-07-23T02:54:25;5.10;;;2.08;;
21546;SDS011;41275;51.912;4.388;2022-07-23T02:59:46;4.30;;;2.50;;
21546;SDS011;41275;51.912;4.388;2022-07-23T03:05:08;13.82;;;10.77;;
21546;SDS011;41275;51.912;4.388;2022-07-23T03:10:30;21.60;;;16.75;;
21546;SDS011;41275;51.912;4.388;2022-07-23T03:15:51;18.57;;;13.00;;
21546;SDS011;41275;51.912;4.388;2022-07-23T03:21:13;11.55;;;8.30;;
21546;SDS011;41275;51.912;4.388;2022-07-23T03:26:34;9.27;;;5.13;;
21546;SDS011;41275;51.912;4.388;2022-07-23T03:31:55;7.10;;;3.22;;
21546;SDS011;41275;51.912;4.388;2022-07-23T03:37:17;7.20;;;2.70;;
21546;SDS011;41275;51.912;4.388;2022-07-23T03:42:39;8.87;;;2.90;;
21546;SDS011;41275;51.912;4.388;2022-07-23T03:48:02;5.50;;;2.92;;
21546;SDS011;41275;51.912;4.388;2022-07-23T03:53:24;10.07;;;7.67;;
21546;SDS011;41275;51.912;4.388;2022-07-23T03:58:45;12.45;;;7.60;;
21546;SDS011;41275;51.912;4.388;2022-07-23T04:04:06;11.13;;;8.52;;
21546;SDS011;41275;51.912;4.388;2022-07-23T04:09:29;14.07;;;10.07;;
21546;SDS011;41275;51.912;4.388;2022-07-23T04:14:50;19.70;;;12.98;;
21546;SDS011;41275;51.912;4.388;2022-07-23T04:20:11;30.23;;;24.07;;
21546;SDS011;41275;51.912;4.388;2022-07-23T04:25:32;39.95;;;32.75;;
21546;SDS011;41275;51.912;4.388;2022-07-23T04:30:55;28.80;;;23.63;;
21546;SDS011;41275;51.912;4.388;2022-07-23T04:36:18;32.72;;;26.20;;
21546;SDS011;41275;51.912;4.388;2022-07-23T04:41:39;29.13;;;25.60;;
21546;SDS011;41275;51.912;4.388;2022-07-23T04:47:00;28.10;;;23.42;;
21546;SDS011;41275;51.912;4.388;2022-07-23T04:52:22;23.33;;;19.60;;
21546;SDS011;41275;51.912;4.388;2022-07-23T04:57:43;19.13;;;12.90;;
21546;SDS011;41275;51.912;4.388;2022-07-23T05:03:04;7.70;;;4.68;;
21546;SDS011;41275;51.912;4.388;2022-07-23T05:08:25;8.93;;;4.68;;
21546;SDS011;41275;51.912;4.388;2022-07-23T05:13:47;5.95;;;3.25;;
21546;SDS011;41275;51.912;4.388;2022-07-23T05:19:08;5.25;;;3.10;;
21546;SDS011;41275;51.912;4.388;2022-07-23T05:24:29;6.45;;;2.80;;
21546;SDS011;41275;51.912;4.388;2022-07-23T05:29:51;6.20;;;2.87;;
21546;SDS011;41275;51.912;4.388;2022-07-23T05:35:12;4.53;;;2.33;;
21546;SDS011;41275;51.912;4.388;2022-07-23T05:40:34;5.20;;;2.30;;
21546;SDS011;41275;51.912;4.388;2022-07-23T05:45:55;5.10;;;1.90;;
21546;SDS011;41275;51.912;4.388;2022-07-23T05:51:19;3.53;;;1.83;;
21546;SDS011;41275;51.912;4.388;2022-07-23T05:56:42;4.18;;;1.98;;
21546;SDS011;41275;51.912;4.388;2022-07-23T06:02:03;4.87;;;1.60;;
21546;SDS011;41275;51.912;4.388;2022-07-23T06:07:24;3.97;;;1.65;;
21546;SDS011;41275;51.912;4.388;2022-07-23T06:12:46;5.10;;;1.48;;
21546;SDS011;41275;51.912;4.388;2022-07-23T06:18:07;3.83;;;1.47;;
21546;SDS011;41275;51.912;4.388;2022-07-23T06:23:28;2.55;;;1.55;;
21546;SDS011;41275;51.912;4.388;2022-07-23T06:28:49;5.13;;;1.37;;
21546;SDS011;41275;51.912;4.388;2022-07-23T06:34:10;7.38;;;1.70;;
21546;SDS011;41275;51.912;4.388;2022-07-23T06:39:32;3.90;;;1.40;;
21546;SDS011;41275;51.912;4.388;2022-07-23T06:44:53;2.17;;;1.13;;
21546;SDS011;41275;51.912;4.388;2022-07-23T06:50:14;2.08;;;1.00;;
21546;SDS011;41275;51.912;4.388;2022-07-23T06:55:35;3.28;;;0.98;;
21546;SDS011;41275;51.912;4.388;2022-07-23T07:00:59;3.60;;;1.20;;
21546;SDS011;41275;51.912;4.388;2022-07-23T07:06:20;3.92;;;1.30;;
21546;SDS011;41275;51.912;4.388;2022-07-23T07:11:41;3.00;;;1.10;;
21546;SDS011;41275;51.912;4.388;2022-07-23T07:17:03;2.72;;;1.13;;
21546;SDS011;41275;51.912;4.388;2022-07-23T07:22:24;4.53;;;1.05;;
21546;SDS011;41275;51.912;4.388;2022-07-23T07:27:45;3.67;;;1.20;;
21546;SDS011;41275;51.912;4.388;2022-07-23T07:33:06;2.23;;;1.00;;
21546;SDS011;41275;51.912;4.388;2022-07-23T07:38:27;3.42;;;1.10;;
21546;SDS011;41275;51.912;4.388;2022-07-23T07:43:49;7.38;;;1.40;;
21546;SDS011;41275;51.912;4.388;2022-07-23T07:49:10;2.33;;;1.00;;
21546;SDS011;41275;51.912;4.388;2022-07-23T07:54:32;2.57;;;1.20;;
21546;SDS011;41275;51.912;4.388;2022-07-23T07:59:53;3.45;;;1.20;;
21546;SDS011;41275;51.912;4.388;2022-07-23T08:05:18;2.77;;;1.00;;
21546;SDS011;41275;51.912;4.388;2022-07-23T08:10:44;3.45;;;1.10;;
21546;SDS011;41275;51.912;4.388;2022-07-23T08:16:05;2.80;;;1.20;;
21546;SDS011;41275;51.912;4.388;2022-07-23T08:21:27;1.80;;;1.05;;
21546;SDS011;41275;51.912;4.388;2022-07-23T08:26:48;4.05;;;1.20;;
21546;SDS011;41275;51.912;4.388;2022-07-23T08:32:09;4.15;;;1.17;;
21546;SDS011;41275;51.912;4.388;2022-07-23T08:37:30;2.80;;;1.40;;
21546;SDS011;41275;51.912;4.388;2022-07-23T08:42:51;3.27;;;1.20;;
21546;SDS011;41275;51.912;4.388;2022-07-23T08:48:14;2.92;;;1.40;;
21546;SDS011;41275;51.912;4.388;2022-07-23T08:53:36;4.20;;;1.37;;
21546;SDS011;41275;51.912;4.388;2022-07-23T08:58:59;2.13;;;1.08;;
21546;SDS011;41275;51.912;4.388;2022-07-23T09:04:20;3.63;;;1.40;;
21546;SDS011;41275;51.912;4.388;2022-07-23T09:09:41;2.60;;;1.20;;
21546;SDS011;41275;51.912;4.388;2022-07-23T09:15:07;3.38;;;1.48;;
21546;SDS011;41275;51.912;4.388;2022-07-23T09:20:29;5.35;;;1.60;;
21546;SDS011;41275;51.912;4.388;2022-07-23T09:25:50;3.20;;;1.20;;
21546;SDS011;41275;51.912;4.388;2022-07-23T09:31:11;4.07;;;1.38;;
21546;SDS011;41275;51.912;4.388;2022-07-23T09:36:33;4.90;;;1.67;;
21546;SDS011;41275;51.912;4.388;2022-07-23T09:41:55;3.00;;;1.37;;
21546;SDS011;41275;51.912;4.388;2022-07-23T09:47:17;4.00;;;1.30;;
21546;SDS011;41275;51.912;4.388;2022-07-23T09:52:43;2.70;;;1.30;;
21546;SDS011;41275;51.912;4.388;2022-07-23T09:58:09;3.30;;;1.30;;
21546;SDS011;41275;51.912;4.388;2022-07-23T10:03:39;3.30;;;1.50;;
21546;SDS011;41275;51.912;4.388;2022-07-23T10:09:01;2.70;;;1.60;;
21546;SDS011;41275;51.912;4.388;2022-07-23T10:14:23;2.58;;;1.40;;
21546;SDS011;41275;51.912;4.388;2022-07-23T10:19:46;4.38;;;1.70;;
21546;SDS011;41275;51.912;4.388;2022-07-23T10:31:03;4.85;;;1.70;;
21546;SDS011;41275;51.912;4.388;2022-07-23T10:36:40;3.80;;;1.60;;
21546;SDS011;41275;51.912;4.388;2022-07-23T10:42:12;3.58;;;1.60;;
21546;SDS011;41275;51.912;4.388;2022-07-23T10:47:35;3.60;;;1.50;;
21546;SDS011;41275;51.912;4.388;2022-07-23T11:10:09;5.22;;;1.42;;
21546;SDS011;41275;51.912;4.388;2022-07-23T11:32:22;4.10;;;1.70;;
21546;SDS011;41275;51.912;4.388;2022-07-23T11:37:45;3.00;;;1.70;;
21546;SDS011;41275;51.912;4.388;2022-07-23T11:43:08;5.15;;;1.67;;
21546;SDS011;41275;51.912;4.388;2022-07-23T11:48:30;3.50;;;1.50;;
21546;SDS011;41275;51.912;4.388;2022-07-23T11:53:53;4.63;;;1.33;;
21546;SDS011;41275;51.912;4.388;2022-07-23T11:59:15;4.90;;;1.58;;
21546;SDS011;41275;51.912;4.388;2022-07-23T12:04:37;2.07;;;1.40;;
21546;SDS011;41275;51.912;4.388;2022-07-23T12:15:42;3.70;;;1.50;;
21546;SDS011;41275;51.912;4.388;2022-07-23T12:21:05;2.33;;;1.33;;
21546;SDS011;41275;51.912;4.388;2022-07-23T12:26:27;2.70;;;1.40;;
21546;SDS011;41275;51.912;4.388;2022-07-23T12:31:48;3.85;;;1.65;;
21546;SDS011;41275;51.912;4.388;2022-07-23T12:37:26;2.28;;;1.30;;
21546;SDS011;41275;51.912;4.388;2022-07-23T12:42:54;1.88;;;1.17;;
21546;SDS011;41275;51.912;4.388;2022-07-23T12:48:20;4.10;;;1.65;;
21546;SDS011;41275;51.912;4.388;2022-07-23T12:53:47;4.40;;;1.80;;
21546;SDS011;41275;51.912;4.388;2022-07-23T12:59:14;2.93;;;1.37;;
21546;SDS011;41275;51.912;4.388;2022-07-23T13:04:37;3.50;;;1.75;;
21546;SDS011;41275;51.912;4.388;2022-07-23T13:09:58;4.18;;;1.70;;
21546;SDS011;41275;51.912;4.388;2022-07-23T13:15:19;5.78;;;1.50;;
21546;SDS011;41275;51.912;4.388;2022-07-23T13:20:40;3.43;;;1.60;;
21546;SDS011;41275;51.912;4.388;2022-07-23T13:26:02;5.70;;;1.60;;
21546;SDS011;41275;51.912;4.388;2022-07-23T13:31:23;2.08;;;1.20;;
21546;SDS011;41275;51.912;4.388;2022-07-23T13:36:45;1.77;;;0.87;;
21546;SDS011;41275;51.912;4.388;2022-07-23T13:42:06;1.70;;;0.80;;
21546;SDS011;41275;51.912;4.388;2022-07-23T13:47:27;3.58;;;0.70;;
21546;SDS011;41275;51.912;4.388;2022-07-23T13:52:48;1.93;;;0.80;;
21546;SDS011;41275;51.912;4.388;2022-07-23T13:58:10;3.08;;;0.77;;
21546;SDS011;41275;51.912;4.388;2022-07-23T14:03:32;1.67;;;0.90;;
21546;SDS011;41275;51.912;4.388;2022-07-23T14:08:53;2.87;;;0.90;;
21546;SDS011;41275;51.912;4.388;2022-07-23T14:14:14;1.83;;;1.00;;
21546;SDS011;41275;51.912;4.388;2022-07-23T14:19:36;4.63;;;1.33;;
21546;SDS011;41275;51.912;4.388;2022-07-23T14:24:57;2.63;;;1.10;;
21546;SDS011;41275;51.912;4.388;2022-07-23T14:30:19;2.13;;;1.10;;
21546;SDS011;41275;51.912;4.388;2022-07-23T14:35:40;7.83;;;4.43;;
21546;SDS011;41275;51.912;4.388;2022-07-23T14:41:02;11.02;;;5.90;;
21546;SDS011;41275;51.912;4.388;2022-07-23T14:46:27;3.75;;;1.40;;
21546;SDS011;41275;51.912;4.388;2022-07-23T14:51:48;4.07;;;1.67;;
21546;SDS011;41275;51.912;4.388;2022-07-23T14:57:09;3.13;;;1.60;;
21546;SDS011;41275;51.912;4.388;2022-07-23T15:02:31;3.27;;;1.57;;
21546;SDS011;41275;51.912;4.388;2022-07-23T15:07:52;3.85;;;1.40;;
21546;SDS011;41275;51.912;4.388;2022-07-23T15:13:14;4.63;;;1.30;;
21546;SDS011;41275;51.912;4.388;2022-07-23T15:18:35;3.93;;;1.90;;
21546;SDS011;41275;51.912;4.388;2022-07-23T15:23:57;5.97;;;2.67;;
21546;SDS011;41275;51.912;4.388;2022-07-23T15:29:21;3.17;;;1.80;;
21546;SDS011;41275;51.912;4.388;2022-07-23T15:34:43;3.85;;;2.38;;
21546;SDS011;41275;51.912;4.388;2022-07-23T15:40:04;4.67;;;2.10;;
21546;SDS011;41275;51.912;4.388;2022-07-23T15:45:28;4.35;;;2.65;;
21546;SDS011;41275;51.912;4.388;2022-07-23T15:50:51;6.57;;;2.58;;
21546;SDS011;41275;51.912;4.388;2022-07-23T15:56:12;4.80;;;2.23;;
21546;SDS011;41275;51.912;4.388;2022-07-23T16:01:33;8.23;;;4.07;;
21546;SDS011;41275;51.912;4.388;2022-07-23T16:06:55;16.90;;;7.97;;
21546;SDS011;41275;51.912;4.388;2022-07-23T16:12:17;9.40;;;5.40;;
21546;SDS011;41275;51.912;4.388;2022-07-23T16:17:38;5.20;;;2.60;;
21546;SDS011;41275;51.912;4.388;2022-07-23T16:22:59;7.53;;;3.20;;
21546;SDS011;41275;51.912;4.388;2022-07-23T16:28:20;6.63;;;2.90;;
21546;SDS011;41275;51.912;4.388;2022-07-23T16:33:42;7.15;;;3.03;;
21546;SDS011;41275;51.912;4.388;2022-07-23T16:39:03;5.53;;;2.93;;
21546;SDS011;41275;51.912;4.388;2022-07-23T16:44:25;59.95;;;25.02;;
21546;SDS011;41275;51.912;4.388;2022-07-23T16:49:46;14.10;;;7.43;;
21546;SDS011;41275;51.912;4.388;2022-07-23T16:55:08;6.00;;;3.50;;
21546;SDS011;41275;51.912;4.388;2022-07-23T17:00:30;5.90;;;2.83;;
21546;SDS011;41275;51.912;4.388;2022-07-23T17:05:51;6.97;;;3.38;;
21546;SDS011;41275;51.912;4.388;2022-07-23T17:11:13;7.97;;;3.13;;
21546;SDS011;41275;51.912;4.388;2022-07-23T17:16:34;6.03;;;3.20;;
21546;SDS011;41275;51.912;4.388;2022-07-23T17:21:56;5.00;;;3.28;;
21546;SDS011;41275;51.912;4.388;2022-07-23T17:27:17;5.95;;;3.38;;
21546;SDS011;41275;51.912;4.388;2022-07-23T17:32:38;9.03;;;4.00;;
21546;SDS011;41275;51.912;4.388;2022-07-23T17:38:00;5.20;;;3.08;;
21546;SDS011;41275;51.912;4.388;2022-07-23T17:43:21;7.88;;;4.93;;
21546;SDS011;41275;51.912;4.388;2022-07-23T17:48:42;8.65;;;5.38;;
21546;SDS011;41275;51.912;4.388;2022-07-23T17:54:04;8.67;;;5.90;;
21546;SDS011;41275;51.912;4.388;2022-07-23T17:59:26;8.18;;;5.20;;
21546;SDS011;41275;51.912;4.388;2022-07-23T18:04:47;7.75;;;5.10;;
21546;SDS011;41275;51.912;4.388;2022-07-23T18:10:08;10.85;;;6.35;;
21546;SDS011;41275;51.912;4.388;2022-07-23T18:15:30;8.93;;;5.70;;
21546;SDS011;41275;51.912;4.388;2022-07-23T18:20:51;19.60;;;11.85;;
21546;SDS011;41275;51.912;4.388;2022-07-23T18:26:12;9.55;;;6.10;;
21546;SDS011;41275;51.912;4.388;2022-07-23T18:31:34;10.20;;;6.28;;
21546;SDS011;41275;51.912;4.388;2022-07-23T18:36:55;9.77;;;6.50;;
21546;SDS011;41275;51.912;4.388;2022-07-23T18:42:16;11.40;;;7.18;;
21546;SDS011;41275;51.912;4.388;2022-07-23T18:47:38;11.80;;;7.25;;
21546;SDS011;41275;51.912;4.388;2022-07-23T18:53:00;9.00;;;6.90;;
21546;SDS011;41275;51.912;4.388;2022-07-23T18:58:21;11.43;;;7.80;;
21546;SDS011;41275;51.912;4.388;2022-07-23T19:03:42;11.67;;;7.77;;
21546;SDS011;41275;51.912;4.388;2022-07-23T19:09:04;12.00;;;7.63;;
21546;SDS011;41275;51.912;4.388;2022-07-23T19:14:26;10.90;;;7.43;;
21546;SDS011;41275;51.912;4.388;2022-07-23T19:19:47;14.60;;;9.17;;
21546;SDS011;41275;51.912;4.388;2022-07-23T19:25:09;13.10;;;10.10;;
21546;SDS011;41275;51.912;4.388;2022-07-23T19:30:30;11.30;;;8.27;;
21546;SDS011;41275;51.912;4.388;2022-07-23T19:35:51;12.63;;;8.48;;
21546;SDS011;41275;51.912;4.388;2022-07-23T19:41:12;11.88;;;8.00;;
21546;SDS011;41275;51.912;4.388;2022-07-23T19:46:34;11.15;;;7.30;;
21546;SDS011;41275;51.912;4.388;2022-07-23T19:51:55;12.77;;;7.97;;
21546;SDS011;41275;51.912;4.388;2022-07-23T19:57:16;10.47;;;7.20;;
21546;SDS011;41275;51.912;4.388;2022-07-23T20:02:37;12.20;;;7.57;;
21546;SDS011;41275;51.912;4.388;2022-07-23T20:07:59;12.60;;;8.02;;
21546;SDS011;41275;51.912;4.388;2022-07-23T20:13:20;14.00;;;8.40;;
21546;SDS011;41275;51.912;4.388;2022-07-23T20:18:42;10.83;;;7.83;;
21546;SDS011;41275;51.912;4.388;2022-07-23T20:24:04;16.75;;;8.55;;
21546;SDS011;41275;51.912;4.388;2022-07-23T20:29:26;11.63;;;8.18;;
21546;SDS011;41275;51.912;4.388;2022-07-23T20:34:47;9.30;;;6.80;;
21546;SDS011;41275;51.912;4.388;2022-07-23T20:40:09;10.63;;;6.27;;
21546;SDS011;41275;51.912;4.388;2022-07-23T20:45:30;9.85;;;6.20;;
21546;SDS011;41275;51.912;4.388;2022-07-23T20:50:51;9.40;;;6.53;;
21546;SDS011;41275;51.912;4.388;2022-07-23T20:56:13;10.53;;;6.67;;
21546;SDS011;41275;51.912;4.388;2022-07-23T21:01:34;8.73;;;6.17;;
21546;SDS011;41275;51.912;4.388;2022-07-23T21:06:55;16.38;;;11.32;;
21546;SDS011;41275;51.912;4.388;2022-07-23T21:12:16;14.48;;;9.38;;
21546;SDS011;41275;51.912;4.388;2022-07-23T21:17:40;11.82;;;6.63;;
21546;SDS011;41275;51.912;4.388;2022-07-23T21:23:01;9.80;;;6.50;;
21546;SDS011;41275;51.912;4.388;2022-07-23T21:28:22;12.87;;;6.70;;
21546;SDS011;41275;51.912;4.388;2022-07-23T21:33:43;12.27;;;7.57;;
21546;SDS011;41275;51.912;4.388;2022-07-23T21:39:05;12.53;;;7.27;;
21546;SDS011;41275;51.912;4.388;2022-07-23T21:44:26;12.90;;;7.47;;
21546;SDS011;41275;51.912;4.388;2022-07-23T21:49:48;18.58;;;8.00;;
21546;SDS011;41275;51.912;4.388;2022-07-23T21:55:09;18.67;;;9.27;;
21546;SDS011;41275;51.912;4.388;2022-07-23T22:00:31;16.57;;;9.23;;
21546;SDS011;41275;51.912;4.388;2022-07-23T22:05:56;15.00;;;8.60;;
21546;SDS011;41275;51.912;4.388;2022-07-23T22:11:18;14.15;;;9.32;;
21546;SDS011;41275;51.912;4.388;2022-07-23T22:16:39;14.15;;;9.90;;
21546;SDS011;41275;51.912;4.388;2022-07-23T22:22:00;17.05;;;10.75;;
21546;SDS011;41275;51.912;4.388;2022-07-23T22:27:21;21.07;;;12.87;;
21546;SDS011;41275;51.912;4.388;2022-07-23T22:32:43;20.27;;;13.40;;
21546;SDS011;41275;51.912;4.388;2022-07-23T22:38:04;20.95;;;13.50;;
21546;SDS011;41275;51.912;4.388;2022-07-23T22:43:25;17.88;;;11.30;;
21546;SDS011;41275;51.912;4.388;2022-07-23T22:48:46;14.07;;;9.63;;
21546;SDS011;41275;51.912;4.388;2022-07-23T22:54:08;15.20;;;8.57;;
21546;SDS011;41275;51.912;4.388;2022-07-23T22:59:29;13.57;;;7.68;;
21546;SDS011;41275;51.912;4.388;2022-07-23T23:04:50;20.52;;;8.07;;
21546;SDS011;41275;51.912;4.388;2022-07-23T23:10:11;19.63;;;7.75;;
21546;SDS011;41275;51.912;4.388;2022-07-23T23:15:33;19.60;;;7.80;;
21546;SDS011;41275;51.912;4.388;2022-07-23T23:20:54;19.13;;;7.10;;
21546;SDS011;41275;51.912;4.388;2022-07-23T23:26:17;16.00;;;6.90;;
21546;SDS011;41275;51.912;4.388;2022-07-23T23:31:38;17.83;;;7.15;;
21546;SDS011;41275;51.912;4.388;2022-07-23T23:36:59;13.38;;;6.68;;
21546;SDS011;41275;51.912;4.388;2022-07-23T23:42:20;14.73;;;7.55;;
21546;SDS011;41275;51.912;4.388;2022-07-23T23:47:41;14.40;;;8.03;;
21546;SDS011;41275;51.912;4.388;2022-07-23T23:53:03;14.63;;;7.73;;
21546;SDS011;41275;51.912;4.388;2022-07-23T23:58:24;15.35;;;9.23;;
